Flight Track Log - Related Links

Times and Time Zones

All times are in EDT time to prevent confusion due to time zone crossing. See the AAL1191 flight status page for this flight to view local times or setup timezone preferences in your user account.

Time Position Orientation Groundspeed Altitude Reporting Facility
EDT Latitude Longitude Course Direction KTS MPH feet Rate Location/Type
Tue 12:23:20 PM 18.4510 -65.9860 66° East 168 193 400  Level FlightAware ADS-B
Tue 12:23:35 PM 18.4580 -65.9770 51° Northeast 175 201 1,000 2,333 Climbing FlightAware ADS-B
Tue 12:23:38 PM 18.4600 -65.9760 25° Northeast 181 208 1,100 2,308 Climbing FlightAware ADS-B
Tue 12:23:48 PM 18.4700 -65.9740 11° North 201 231 1,500 2,286 Climbing FlightAware ADS-B
Tue 12:24:20 PM 18.5040 -65.9890 337° Northwest 264 304 2,700 2,455 Climbing FlightAware ADS-B
Tue 12:24:32 PM 18.5140 -65.9980 320° Northwest 273 314 3,300 3,333 Climbing FlightAware ADS-B
Tue 12:24:38 PM 18.5180 -66.0060 298° West 277 319 3,700 4,500 Climbing FlightAware ADS-B
Tue 12:24:48 PM 18.5240 -66.0190 296° West 275 316 4,500 4,091 Climbing FlightAware ADS-B
Tue 12:25:00 PM 18.5260 -66.0340 278° West 278 320 5,200 3,300 Climbing FlightAware ADS-B
Tue 12:25:28 PM 18.5190 -66.0720 259° West 293 337 6,700 3,333 Climbing FlightAware ADS-B
Tue 12:25:36 PM 18.5130 -66.0820 238° Southwest 291 335 7,200 2,727 Climbing FlightAware ADS-B
Tue 12:25:50 PM 18.5010 -66.0970 230° Southwest 294 338 7,700 2,200 Climbing FlightAware ADS-B
Tue 12:26:06 PM 18.4850 -66.1130 223° Southwest 295 339 8,300 1,950 Climbing FlightAware ADS-B
Tue 12:26:30 PM 18.4590 -66.1340 217° Southwest 296 341 9,000 1,435 Climbing FlightAware ADS-B
Tue 12:26:52 PM 18.4350 -66.1520 215° Southwest 299 344 9,400 840 Climbing FlightAware ADS-B
Tue 12:27:20 PM 18.3980 -66.1680 202° Southwest 296 341 9,700 938 Climbing FlightAware ADS-B
Tue 12:27:56 PM 18.3500 -66.1770 190° South 297 342 10,400 1,412 Climbing FlightAware ADS-B
Tue 12:28:28 PM 18.3060 -66.1860 191° South 311 358 11,300 2,000 Climbing FlightAware ADS-B
Tue 12:29:02 PM 18.2560 -66.2030 198° South 344 396 12,600 2,735 Climbing FlightAware ADS-B
Tue 12:29:36 PM 18.2050 -66.2250 202° Southwest 351 404 14,400 3,000 Climbing FlightAware ADS-B
Tue 12:30:14 PM 18.1500 -66.2450 199° South 357 411 16,200 2,917 Climbing FlightAware ADS-B
Tue 12:30:48 PM 18.0910 -66.2640 197° South 366 421 17,900 2,704 Climbing FlightAware ADS-B
Tue 12:31:25 PM 18.0320 -66.2790 194° South 376 433 19,400 2,400 Climbing FlightAware ADS-B
Tue 12:31:58 PM 17.9730 -66.2840 185° South 384 442 20,700 2,289 Climbing FlightAware ADS-B
Tue 12:32:41 PM 17.8930 -66.2970 189° South 399 459 22,300 2,219 Climbing FlightAware ADS-B
Tue 12:33:11 PM 17.8380 -66.3040 187° South 406 467 23,400 2,143 Climbing FlightAware ADS-B
Tue 12:33:51 PM 17.7620 -66.3160 189° South 415 478 24,800 2,219 Climbing FlightAware ADS-B
Tue 12:34:24 PM 17.6990 -66.3260 189° South 413 475 26,100 2,137 Climbing FlightAware ADS-B
Tue 12:35:04 PM 17.6250 -66.3370 188° South 420 483 27,400 1,833 Climbing FlightAware ADS-B
Tue 12:35:36 PM 17.5620 -66.3460 188° South 427 491 28,300 1,412 Climbing FlightAware ADS-B
Tue 12:36:12 PM 17.4890 -66.3560 187° South 441 507 29,000 1,333 Climbing FlightAware ADS-B
Tue 12:36:48 PM 17.4150 -66.3660 187° South 451 519 29,900 1,588 Climbing FlightAware ADS-B
Tue 12:37:20 PM 17.3480 -66.3760 188° South 453 521 30,800 1,791 Climbing FlightAware ADS-B
Tue 12:37:55 PM 17.2730 -66.3860 187° South 451 519 31,900 1,075 Climbing FlightAware ADS-B
Tue 12:38:27 PM 17.2050 -66.3960 188° South 454 522 32,000 70 Climbing FlightAware ADS-B
Tue 12:39:21 PM 17.0940 -66.4120 188° South 456 525 32,000  Level FlightAware ADS-B
Tue 12:40:14 PM 16.9950 -66.4270 188° South 456 525 32,000  Level FlightAware ADS-B
Tue 12:41:02 PM 16.9090 -66.4390 188° South 456 525 32,000  Level FlightAware ADS-B
Tue 12:41:39 PM 16.8440 -66.4490 188° South 456 525 32,000  Level FlightAware ADS-B
Tue 12:42:08 PM 16.7540 -66.4620 188° South 456 525 32,000  Level FlightAware ADS-B
Tue 12:42:59 PM 16.6460 -66.4770 188° South 456 525 32,000  Level FlightAware ADS-B
Tue 12:43:35 PM 16.5820 -66.4850 187° South 456 525 32,000  Level FlightAware ADS-B
Tue 12:44:22 PM 16.4980 -66.4960 187° South 456 525 32,000  Level FlightAware ADS-B
Tue 12:44:58 PM 16.4340 -66.5040 187° South 456 525 32,000  Level FlightAware ADS-B
Tue 12:45:46 PM 16.3490 -66.5150 187° South 456 525 32,000  Level FlightAware ADS-B
Tue 12:46:22 PM 16.2850 -66.5230 187° South 456 525 32,000  Level FlightAware ADS-B
Tue 12:47:02 PM 16.1390 -66.5500 190° South 453 521 32,000  Level FlightAware ADS-B
Tue 12:47:52 PM 16.0360 -66.5640 187° South 454 522 32,000  Level FlightAware ADS-B
Tue 12:48:28 PM 15.9730 -66.5720 187° South 454 522 32,000  Level FlightAware ADS-B
Tue 12:49:04 PM 15.9090 -66.5800 187° South 454 522 32,000  Level FlightAware ADS-B
Tue 12:49:40 PM 15.8450 -66.5890 188° South 454 522 32,000  Level FlightAware ADS-B
Tue 12:50:16 PM 15.7810 -66.5970 187° South 454 522 32,000  Level FlightAware ADS-B
Tue 12:50:52 PM 15.7180 -66.6050 187° South 454 522 32,000  Level FlightAware ADS-B
Tue 12:51:40 PM 15.6320 -66.6160 187° South 454 522 32,000  Level FlightAware ADS-B
Tue 12:52:32 PM 15.4630 -66.6370 187° South 453 521 32,000  Level FlightAware ADS-B
Tue 12:53:12 PM 15.3780 -66.6390 181° South 453 521 32,000  Level FlightAware ADS-B
Tue 12:53:47 PM 15.2910 -66.6440 183° South 449 517 32,000  Level FlightAware ADS-B
Tue 12:54:19 PM 15.2180 -66.6460 182° South 447 514 32,000  Level FlightAware ADS-B
Tue 12:54:59 PM 15.1340 -66.6490 182° South 438 504 32,000  Level FlightAware ADS-B
Tue 12:55:28 PM 15.0730 -66.6510 182° South 436 502 32,000  Level FlightAware ADS-B
Tue 12:56:04 PM 15.0010 -66.6530 182° South 436 502 32,000  Level FlightAware ADS-B
Tue 12:56:56 PM 14.9090 -66.6560 182° South 436 502 32,000  Level FlightAware ADS-B
Tue 12:57:32 PM 14.8470 -66.6570 181° South 436 502 32,000  Level FlightAware ADS-B
Tue 12:58:08 PM 14.7850 -66.6580 181° South 436 502 32,000  Level FlightAware ADS-B
Tue 12:58:44 PM 14.7230 -66.6590 181° South 436 502 32,000  Level FlightAware ADS-B
Tue 12:59:29 PM 14.5780 -66.6670 183° South 449 517 32,000  Level FlightAware ADS-B
Tue 01:00:20 PM 14.4840 -66.6700 182° South 449 517 32,000  Level FlightAware ADS-B
Tue 01:01:10 PM 14.3650 -66.6720 181° South 450 518 32,000  Level FlightAware ADS-B
Tue 01:01:50 PM 14.2820 -66.6710 179° South 449 517 32,000  Level FlightAware ADS-B
Tue 01:02:20 PM 14.2190 -66.6710 180° South 449 517 32,000  Level FlightAware ADS-B
Tue 01:03:00 PM 14.1360 -66.6710 180° South 450 518 32,000  Level FlightAware ADS-B
Tue 01:03:35 PM 14.0620 -66.6710 180° South 450 518 32,000  Level FlightAware ADS-B
Tue 01:04:10 PM 13.9900 -66.6710 180° South 450 518 32,000  Level FlightAware ADS-B
Tue 01:04:50 PM 13.9090 -66.6710 180° South 451 519 32,000  Level FlightAware ADS-B
Tue 01:05:26 PM 13.8340 -66.6710 180° South 452 520 32,000  Level FlightAware ADS-B
Tue 01:06:11 PM 13.7510 -66.6710 180° South 452 520 32,000  Level FlightAware ADS-B
Tue 01:06:44 PM 13.6840 -66.6710 180° South 452 520 32,000  Level FlightAware ADS-B
Tue 01:07:11 PM 13.6100 -66.6710 180° South 452 520 32,000  Level FlightAware ADS-B
Tue 01:07:51 PM 13.5260 -66.6710 180° South 452 520 32,000  Level FlightAware ADS-B
Tue 01:08:26 PM 13.4520 -66.6710 180° South 453 521 32,000  Level FlightAware ADS-B
Tue 01:09:01 PM 13.3800 -66.6710 180° South 452 520 32,000  Level FlightAware ADS-B
Tue 01:09:36 PM 13.3050 -66.6710 180° South 453 521 32,000  Level FlightAware ADS-B
Tue 01:10:16 PM 13.2220 -66.6710 180° South 453 521 32,000  Level FlightAware ADS-B
Tue 01:10:46 PM 13.1580 -66.6710 180° South 454 522 32,000  Level FlightAware ADS-B
Tue 01:11:21 PM 13.0850 -66.6710 180° South 447 514 32,000 -254 Level FlightAware ADS-B
Tue 01:11:57 PM 13.0210 -66.6710 180° South 448 516 31,700 -930 Descending FlightAware ADS-B
Tue 01:12:32 PM 12.9390 -66.6720 181° South 419 482 30,900 -1,457 Descending FlightAware ADS-B
Tue 01:13:07 PM 12.8690 -66.6720 180° South 416 479 30,000 -1,543 Descending FlightAware ADS-B
Tue 01:13:42 PM 12.8040 -66.6720 180° South 400 460 29,100 -1,543 Descending FlightAware ADS-B
Tue 01:14:17 PM 12.7380 -66.6710 179° South 389 448 28,200 -1,543 Descending FlightAware ADS-B
Tue 01:14:52 PM 12.6750 -66.6710 180° South 388 447 27,300 -1,482 Descending FlightAware ADS-B
Tue 01:15:42 PM 12.5840 -66.6710 180° South 385 443 26,100 -1,429 Descending FlightAware ADS-B
Tue 01:16:37 PM 12.4880 -66.6710 180° South 371 427 24,800 -1,385 Descending FlightAware ADS-B
Tue 01:17:13 PM 12.4280 -66.6710 180° South 367 422 24,000 -1,440 Descending FlightAware ADS-B
Tue 01:17:52 PM 12.3610 -66.6710 180° South 355 409 23,000 -1,443 Descending FlightAware ADS-B
Tue 01:18:32 PM 12.2950 -66.6710 180° South 357 411 22,100 -1,317 Descending FlightAware ADS-B
Tue 01:19:14 PM 12.2280 -66.6710 180° South 354 407 21,200 -1,342 Descending FlightAware ADS-B
Tue 01:19:48 PM 12.1700 -66.6710 180° South 351 404 20,400 -1,304 Descending FlightAware ADS-B
Tue 01:20:23 PM 12.1120 -66.6710 180° South 339 390 19,700 -1,280 Descending FlightAware ADS-B
Tue 01:21:03 PM 12.0490 -66.6710 180° South 336 387 18,800 -1,275 Descending FlightAware ADS-B
Tue 01:21:43 PM 11.9850 -66.6710 180° South 336 387 18,000 -1,200 Descending FlightAware ADS-B
Tue 01:22:18 PM 11.9310 -66.6750 184° South 326 375 17,300 -1,200 Descending FlightAware ADS-B
Tue 01:22:53 PM 11.8780 -66.6870 192° South 333 383 16,600 -1,200 Descending FlightAware ADS-B
Tue 01:23:33 PM 11.8190 -66.7020 194° South 327 376 15,800 -1,280 Descending FlightAware ADS-B
Tue 01:24:08 PM 11.7660 -66.7140 192° South 313 360 15,000 -1,273 Descending FlightAware ADS-B
Tue 01:24:39 PM 11.7220 -66.7250 194° South 313 360 14,400 -1,130 Descending FlightAware ADS-B
Tue 01:25:17 PM 11.6710 -66.7380 194° South 318 366 13,700 -1,040 Descending FlightAware ADS-B
Tue 01:25:54 PM 11.6140 -66.7510 193° South 317 365 13,100 -985 Descending FlightAware ADS-B
Tue 01:26:24 PM 11.5700 -66.7620 194° South 311 358 12,600 -575 Descending FlightAware ADS-B
Tue 01:27:07 PM 11.5220 -66.7730 193° South 300 345 12,400 -150 Descending FlightAware ADS-B
Tue 01:27:44 PM 11.4800 -66.7830 193° South 300 345 12,400  Level FlightAware ADS-B
Tue 01:28:18 PM 11.4410 -66.7920 193° South 300 345 12,400  Level FlightAware ADS-B
Tue 01:30:00 PM 11.2134 -66.8341 194° South  Level FlightAware Approximate
Tue 01:31:00 PM 11.0814 -66.8671 191° South  Level FlightAware Approximate
Tue 01:32:00 PM 10.9490 -66.8979 196° South  Level FlightAware Approximate
Tue 01:33:00 PM 10.8166 -66.9223 198° South  Level FlightAware Approximate
Tue 01:34:00 PM 10.6837 -66.9466 191° South  Level FlightAware Approximate
Tue 01:35:00 PM 10.6000 -66.9667 194° South  Level FlightAware Approximate
Tue 01:36:00 PM 10.6031 -66.9906 194° South  Level Estimated
Tue 01:37:00 PM 10.6031 -66.9906 194° South  Level Estimated
Tue 01:38:00 PM 10.6031 -66.9906 194° South  Level Estimated
Tue 01:39:00 PM 10.6031 -66.9906 194° South  Level Estimated
Tue 01:40:00 PM 10.6031 -66.9906 194° South  Level Estimated
Tue 01:41:00 PM 10.6031 -66.9906 194° South  Level Estimated
Tue 01:42:00 PM 10.6031 -66.9906 194° South  Level Estimated
Tue 01:43:00 PM 10.6031 -66.9906 194° South  Level Estimated
Tue 01:44:00 PM 10.6031 -66.9906 194° South  Level Estimated
Tue 01:45:00 PM 10.6031 -66.9906 194° South  Level Estimated
Tue 01:46:00 PM 10.6031 -66.9906 194° South  Level Estimated
Tue 01:47:00 PM 10.6031 -66.9906 194° South  Level Estimated
Tue 01:48:00 PM 10.6031 -66.9906 194° South  Level Estimated
Tue 01:49:00 PM 10.6031 -66.9906 194° South  Level Estimated

Login

Don't have an account? Register now (free) for customized features, flight alerts, and more!